createdAt,value
2016-05-22T00:00:03.826Z,74.17
2016-05-22T00:00:13.844Z,74.17
2016-05-22T00:00:23.844Z,74.37
2016-05-22T00:00:33.860Z,74.17
2016-05-22T00:00:43.844Z,74.17
2016-05-22T00:00:53.844Z,74.17
2016-05-22T00:01:03.860Z,74.27
2016-05-22T00:01:13.862Z,74.27
2016-05-22T00:01:23.877Z,74.27
2016-05-22T00:01:33.877Z,74.08
2016-05-22T00:01:43.877Z,74.17
2016-05-22T00:01:53.877Z,73.98
2016-05-22T00:02:03.893Z,74.27
2016-05-22T00:02:13.896Z,74.17
2016-05-22T00:02:23.912Z,74.27
2016-05-22T00:02:33.912Z,74.27
2016-05-22T00:02:43.912Z,74.37
2016-05-22T00:02:53.927Z,74.17
2016-05-22T00:03:03.927Z,73.88
2016-05-22T00:03:13.946Z,74.08
2016-05-22T00:03:23.946Z,74.08
2016-05-22T00:03:33.946Z,74.37
2016-05-22T00:03:43.946Z,74.55
2016-05-22T00:03:53.946Z,74.55
2016-05-22T00:04:03.946Z,74.55
2016-05-22T00:04:13.979Z,74.55
2016-05-22T00:04:23.964Z,73.98
2016-05-22T00:04:33.964Z,74.55
2016-05-22T00:04:43.823Z,74.52
2016-05-22T00:04:53.979Z,74.52
2016-05-22T00:05:03.995Z,74.43
2016-05-22T00:05:13.998Z,74.55
2016-05-22T00:05:23.998Z,74.33
2016-05-22T00:05:34.013Z,74.23
2016-05-22T00:05:44.013Z,74.33
2016-05-22T00:05:54.013Z,74.33
2016-05-22T00:06:04.013Z,74.33
2016-05-22T00:06:14.032Z,74.23
2016-05-22T00:06:24.032Z,74.52
2016-05-22T00:06:34.032Z,74.62
2016-05-22T00:06:44.048Z,74.62
2016-05-22T00:06:54.063Z,74.62
2016-05-22T00:07:04.048Z,74.52
2016-05-22T00:07:14.065Z,74.43
2016-05-22T00:07:24.065Z,74.23
2016-05-22T00:07:34.065Z,74.52
2016-05-22T00:07:44.081Z,74.13
2016-05-22T00:07:54.081Z,74.43
2016-05-22T00:08:04.097Z,74.43
2016-05-22T00:08:14.101Z,74.43
2016-05-22T00:08:24.101Z,74.33
2016-05-22T00:08:34.116Z,74.33
2016-05-22T00:08:44.116Z,74.33
2016-05-22T00:08:54.132Z,74.33
2016-05-22T00:09:04.116Z,74.23
2016-05-22T00:09:14.134Z,74.33
2016-05-22T00:09:24.134Z,74.33
2016-05-22T00:09:34.134Z,74.33
2016-05-22T00:09:43.993Z,74.33
2016-05-22T00:09:54.149Z,74.23
2016-05-22T00:10:04.149Z,74.04
2016-05-22T00:10:14.167Z,74.52
2016-05-22T00:10:24.167Z,74.62
2016-05-22T00:10:34.167Z,74.43
2016-05-22T00:10:44.167Z,74.43
2016-05-22T00:10:54.198Z,74.33
2016-05-22T00:11:04.183Z,74.13
2016-05-22T00:11:14.421Z,74.43
2016-05-22T00:11:24.280Z,74.33
2016-05-22T00:11:34.249Z,74.33
2016-05-22T00:11:44.234Z,74.43
2016-05-22T00:11:54.234Z,74.43
2016-05-22T00:12:04.218Z,74.43
2016-05-22T00:12:14.079Z,74.23
2016-05-22T00:12:24.251Z,74.33
2016-05-22T00:12:35.048Z,74.43
2016-05-22T00:12:44.251Z,74.43
2016-05-22T00:12:54.095Z,74.23
2016-05-22T00:13:04.282Z,74.33
2016-05-22T00:13:14.253Z,74.13
2016-05-22T00:13:24.269Z,74.43
2016-05-22T00:13:34.269Z,74.13
2016-05-22T00:13:44.128Z,74.13
2016-05-22T00:13:54.378Z,74.23
2016-05-22T00:14:04.284Z,74.33
2016-05-22T00:14:14.304Z,74.23
2016-05-22T00:14:25.023Z,74.33
2016-05-22T00:14:34.398Z,74.23
2016-05-22T00:14:44.320Z,74.23
2016-05-22T00:14:54.335Z,74.13
2016-05-22T00:15:04.320Z,74.33
2016-05-22T00:15:14.322Z,74.33
2016-05-22T00:15:24.337Z,74.43
2016-05-22T00:15:34.353Z,74.23
2016-05-22T00:15:44.353Z,74.33
2016-05-22T00:15:54.337Z,74.33
2016-05-22T00:16:04.353Z,74.43
2016-05-22T00:16:14.387Z,74.43
2016-05-22T00:16:24.356Z,74.43
2016-05-22T00:16:34.372Z,74.33
2016-05-22T00:16:44.372Z,74.71
2016-05-22T00:16:54.231Z,74.62
2016-05-22T00:17:04.387Z,74.9
2016-05-22T00:17:14.389Z,74.13
2016-05-22T00:17:24.405Z,74.62
2016-05-22T00:17:34.405Z,74.81
2016-05-22T00:17:44.405Z,74.62
2016-05-22T00:17:54.436Z,74.62
2016-05-22T00:18:04.264Z,75.1
2016-05-22T00:18:14.423Z,74.62
2016-05-22T00:18:24.423Z,75.1
2016-05-22T00:18:34.423Z,75.1
2016-05-22T00:18:44.439Z,75.2
2016-05-22T00:18:54.439Z,74.9
2016-05-22T00:19:04.455Z,75
2016-05-22T00:19:14.301Z,74.9
2016-05-22T00:19:24.458Z,75
2016-05-22T00:19:34.473Z,74.81
2016-05-22T00:19:44.473Z,74.9
2016-05-22T00:19:54.473Z,74.62
2016-05-22T00:20:04.489Z,75.1
2016-05-22T00:20:14.491Z,75
2016-05-22T00:20:24.491Z,74.81
2016-05-22T00:20:34.507Z,75
2016-05-22T00:20:44.507Z,74.71
2016-05-22T00:20:54.507Z,74.81
2016-05-22T00:21:04.522Z,74.81
2016-05-22T00:21:14.525Z,74.81
2016-05-22T00:21:24.525Z,74.9
2016-05-22T00:21:34.541Z,74.81
2016-05-22T00:21:44.541Z,74.81
2016-05-22T00:21:54.385Z,74.62
2016-05-22T00:22:04.541Z,74.71
2016-05-22T00:22:14.559Z,74.71
2016-05-22T00:22:24.559Z,74.71
2016-05-22T00:22:34.559Z,74.81
2016-05-22T00:22:44.575Z,74.71
2016-05-22T00:22:54.575Z,74.62
2016-05-22T00:23:04.575Z,75
2016-05-22T00:23:14.593Z,75
2016-05-22T00:23:24.593Z,75
2016-05-22T00:23:34.593Z,75
2016-05-22T00:23:44.624Z,75
2016-05-22T00:23:54.624Z,75.1
2016-05-22T00:24:04.655Z,75
2016-05-22T00:24:14.659Z,75.48
2016-05-22T00:24:24.644Z,75
2016-05-22T00:24:34.659Z,75.15
2016-05-22T00:24:44.659Z,75.35
2016-05-22T00:24:54.659Z,75.06
2016-05-22T00:25:04.644Z,75.1
2016-05-22T00:25:14.677Z,75.48
2016-05-22T00:25:24.864Z,75.48
2016-05-22T00:25:34.802Z,75.48
2016-05-22T00:25:44.677Z,75.1
2016-05-22T00:25:54.677Z,75.2
2016-05-22T00:26:04.677Z,75.48
2016-05-22T00:26:14.694Z,75.15
2016-05-22T00:26:24.694Z,75.06
2016-05-22T00:26:34.694Z,75.06
2016-05-22T00:26:44.710Z,75.15
2016-05-22T00:26:54.710Z,75.06
2016-05-22T00:27:04.710Z,75.15
2016-05-22T00:27:14.573Z,75.15
2016-05-22T00:27:24.745Z,75.15
2016-05-22T00:27:34.870Z,75.73
2016-05-22T00:27:44.792Z,75.35
2016-05-22T00:27:55.120Z,75.35
2016-05-22T00:28:04.745Z,75.35
2016-05-22T00:28:14.747Z,75.73
2016-05-22T00:28:24.763Z,75.35
2016-05-22T00:28:34.763Z,75.35
2016-05-22T00:28:44.763Z,75.54
2016-05-22T00:28:54.779Z,75.45
2016-05-22T00:29:04.779Z,75.45
2016-05-22T00:29:14.797Z,75.35
2016-05-22T00:29:24.797Z,75.54
2016-05-22T00:29:34.797Z,75.45
2016-05-22T00:29:44.797Z,75.45
2016-05-22T00:29:54.797Z,75.25
2016-05-22T00:30:04.813Z,75.25
2016-05-22T00:30:14.674Z,75.45
2016-05-22T00:30:24.830Z,75.15
2016-05-22T00:30:34.830Z,75.25
2016-05-22T00:30:44.830Z,75.25
2016-05-22T00:30:54.846Z,75.35
2016-05-22T00:31:04.846Z,75.54
2016-05-22T00:31:14.865Z,75.35
2016-05-22T00:31:24.865Z,75.54
2016-05-22T00:31:34.865Z,75.25
2016-05-22T00:31:44.865Z,75.45
2016-05-22T00:31:54.880Z,75.63
2016-05-22T00:32:04.880Z,75.25
2016-05-22T00:32:14.883Z,75.25
2016-05-22T00:32:24.883Z,75.45
2016-05-22T00:32:34.899Z,75.25
2016-05-22T00:32:44.899Z,75.45
2016-05-22T00:32:54.743Z,75.45
2016-05-22T00:33:04.915Z,75.73
2016-05-22T00:33:14.917Z,75.54
2016-05-22T00:33:24.917Z,75.73
2016-05-22T00:33:34.932Z,75.6
2016-05-22T00:33:44.792Z,75.6
2016-05-22T00:33:54.948Z,75.7
2016-05-22T00:34:04.792Z,75.5
2016-05-22T00:34:14.951Z,75.6
2016-05-22T00:34:24.951Z,75.79
2016-05-22T00:34:34.966Z,75.5
2016-05-22T00:34:44.966Z,76.17
2016-05-22T00:34:54.966Z,76.17
2016-05-22T00:35:04.982Z,75.73
2016-05-22T00:35:14.985Z,75.31
2016-05-22T00:35:24.985Z,76.17
2016-05-22T00:35:35.001Z,75.35
2016-05-22T00:35:45.001Z,75.21
2016-05-22T00:35:55.001Z,75.5
2016-05-22T00:36:05.001Z,76.27
2016-05-22T00:36:15.019Z,75.6
2016-05-22T00:36:25.019Z,75.79
2016-05-22T00:36:35.035Z,75.89
2016-05-22T00:36:45.035Z,76.17
2016-05-22T00:36:55.035Z,75.6
2016-05-22T00:37:05.035Z,76.17
2016-05-22T00:37:15.068Z,76.27
2016-05-22T00:37:25.053Z,76.21
2016-05-22T00:37:34.912Z,75.6
2016-05-22T00:37:45.068Z,75.7
2016-05-22T00:37:55.068Z,76.07
2016-05-22T00:38:05.068Z,75.6
2016-05-22T00:38:15.071Z,75.98
2016-05-22T00:38:24.931Z,75.54
2016-05-22T00:38:35.087Z,75.89
2016-05-22T00:38:45.102Z,75.54
2016-05-22T00:38:55.102Z,75.89
2016-05-22T00:39:05.102Z,75.98
2016-05-22T00:39:15.105Z,75.82
2016-05-22T00:39:24.965Z,75.6
2016-05-22T00:39:35.121Z,76.02
2016-05-22T00:39:45.137Z,75.7
2016-05-22T00:39:54.980Z,75.5
2016-05-22T00:40:05.137Z,76.17
2016-05-22T00:40:15.154Z,75.92
2016-05-22T00:40:25.154Z,75.98
2016-05-22T00:40:35.154Z,75.98
2016-05-22T00:40:45.170Z,75.89
2016-05-22T00:40:55.170Z,75.89
2016-05-22T00:41:05.170Z,76.07
2016-05-22T00:41:15.173Z,76.07
2016-05-22T00:41:25.189Z,75.92
2016-05-22T00:41:35.189Z,75.98
2016-05-22T00:41:45.204Z,75.98
2016-05-22T00:41:55.204Z,76.07
2016-05-22T00:42:05.048Z,76.02
2016-05-22T00:42:15.223Z,75.98
2016-05-22T00:42:25.176Z,75.98
2016-05-22T00:42:35.223Z,76.17
2016-05-22T00:42:45.223Z,75.89
2016-05-22T00:42:55.660Z,76.07
2016-05-22T00:43:05.082Z,75.89
2016-05-22T00:43:15.240Z,76.07
2016-05-22T00:43:25.240Z,75.89
2016-05-22T00:43:35.256Z,75.98
2016-05-22T00:43:45.256Z,75.98
2016-05-22T00:43:55.272Z,75.98
2016-05-22T00:44:05.272Z,76.07
2016-05-22T00:44:15.276Z,75.98
2016-05-22T00:44:25.276Z,75.98
2016-05-22T00:44:35.291Z,75.89
2016-05-22T00:44:45.291Z,75.98
2016-05-22T00:44:55.291Z,75.98
2016-05-22T00:45:05.307Z,75.89
2016-05-22T00:45:15.309Z,75.89
2016-05-22T00:45:25.309Z,75.98
2016-05-22T00:45:35.325Z,76.07
2016-05-22T00:45:45.325Z,75.98
2016-05-22T00:45:55.325Z,75.89
2016-05-22T00:46:05.340Z,75.98
2016-05-22T00:46:15.342Z,76.07
2016-05-22T00:46:25.342Z,75.79
2016-05-22T00:46:35.342Z,75.79
2016-05-22T00:46:45.358Z,75.98
2016-05-22T00:46:55.358Z,75.7
2016-05-22T00:47:05.217Z,75.6
2016-05-22T00:47:15.377Z,75.79
2016-05-22T00:47:25.377Z,75.6
2016-05-22T00:47:35.377Z,75.79
2016-05-22T00:47:45.393Z,75.7
2016-05-22T00:47:55.237Z,75.79
2016-05-22T00:48:05.237Z,75.6
2016-05-22T00:48:15.411Z,75.6
2016-05-22T00:48:25.254Z,75.6
2016-05-22T00:48:35.426Z,75.6
2016-05-22T00:48:45.426Z,75.89
2016-05-22T00:48:55.426Z,75.5
2016-05-22T00:49:05.442Z,75.79
2016-05-22T00:49:15.428Z,75.79
2016-05-22T00:49:25.444Z,75.6
2016-05-22T00:49:35.460Z,75.79
2016-05-22T00:49:45.460Z,75.6
2016-05-22T00:49:55.460Z,75.6
2016-05-22T00:50:05.460Z,75.6
2016-05-22T00:50:15.478Z,75.79
2016-05-22T00:50:25.478Z,75.6
2016-05-22T00:50:35.478Z,75.98
2016-05-22T00:50:45.509Z,75.79
2016-05-22T00:50:55.494Z,75.7
2016-05-22T00:51:05.494Z,75.7
2016-05-22T00:51:15.497Z,75.6
2016-05-22T00:51:25.512Z,75.6
2016-05-22T00:51:35.512Z,75.6
2016-05-22T00:51:45.528Z,75.4
2016-05-22T00:51:55.512Z,75.6
2016-05-22T00:52:05.528Z,75.6
2016-05-22T00:52:15.531Z,75.7
2016-05-22T00:52:25.562Z,75.6
2016-05-22T00:52:35.547Z,75.6
2016-05-22T00:52:45.547Z,75.6
2016-05-22T00:52:55.562Z,75.79
2016-05-22T00:53:05.562Z,75.79
2016-05-22T00:53:15.564Z,75.79
2016-05-22T00:53:25.580Z,75.89
2016-05-22T00:53:35.580Z,75.6
2016-05-22T00:53:45.580Z,75.89
2016-05-22T00:53:55.580Z,75.5
2016-05-22T00:54:05.596Z,75.5
2016-05-22T00:54:15.599Z,75.6
2016-05-22T00:54:25.614Z,75.5
2016-05-22T00:54:35.458Z,75.6
2016-05-22T00:54:45.614Z,75.7
2016-05-22T00:54:55.630Z,75.5
2016-05-22T00:55:05.630Z,75.6
2016-05-22T00:55:15.648Z,75.6
2016-05-22T00:55:25.648Z,75.6
2016-05-22T00:55:35.648Z,75.5
2016-05-22T00:55:45.648Z,75.5
2016-05-22T00:55:55.664Z,75.31
2016-05-22T00:56:05.664Z,75.6
2016-05-22T00:56:15.510Z,75.5
2016-05-22T00:56:25.666Z,75.6
2016-05-22T00:56:35.666Z,75.6
2016-05-22T00:56:45.682Z,75.6
2016-05-22T00:56:55.697Z,75.6
2016-05-22T00:57:05.697Z,75.6
2016-05-22T00:57:15.700Z,75.79
2016-05-22T00:57:26.216Z,76.17
2016-05-22T00:57:35.716Z,75.79
2016-05-22T00:57:45.575Z,75.79
2016-05-22T00:57:55.841Z,75.6
2016-05-22T00:58:05.560Z,75.7
2016-05-22T00:58:15.735Z,75.79
2016-05-22T00:58:25.735Z,76.17
2016-05-22T00:58:35.735Z,75.79
2016-05-22T00:58:45.750Z,75.79
2016-05-22T00:58:55.766Z,75.7
2016-05-22T00:59:05.750Z,75.79
2016-05-22T00:59:15.769Z,75.79
2016-05-22T00:59:25.784Z,75.89
2016-05-22T00:59:35.784Z,75.7
2016-05-22T00:59:45.628Z,75.79
2016-05-22T00:59:55.784Z,75.79
2016-05-22T01:00:05.784Z,76.07
2016-05-22T01:00:15.802Z,75.79
2016-05-22T01:00:25.802Z,75.89
2016-05-22T01:00:35.802Z,75.6
2016-05-22T01:00:45.818Z,75.31
2016-05-22T01:00:55.833Z,75.89
2016-05-22T01:01:05.661Z,75.79
2016-05-22T01:01:15.821Z,75.31
2016-05-22T01:01:25.836Z,75.89
2016-05-22T01:01:35.836Z,75.98
2016-05-22T01:01:45.680Z,75.31
2016-05-22T01:01:55.852Z,75.7
2016-05-22T01:02:05.852Z,75.5
2016-05-22T01:02:15.854Z,76.17
2016-05-22T01:02:25.885Z,75.79
2016-05-22T01:02:35.870Z,75.4
2016-05-22T01:02:45.870Z,75.7
2016-05-22T01:02:55.885Z,76.07
2016-05-22T01:03:05.885Z,76.07
2016-05-22T01:03:15.888Z,75.89
2016-05-22T01:03:25.904Z,75.5
2016-05-22T01:03:35.904Z,76.07
2016-05-22T01:03:45.904Z,75.79
2016-05-22T01:03:55.904Z,75.89
2016-05-22T01:04:05.935Z,75.79
2016-05-22T01:04:15.922Z,75.6
2016-05-22T01:04:25.922Z,75.6
2016-05-22T01:04:35.938Z,75.31
2016-05-22T01:04:45.938Z,75.79
2016-05-22T01:04:55.954Z,75.89
2016-05-22T01:05:05.954Z,75.89
2016-05-22T01:05:15.956Z,76.07
2016-05-22T01:05:25.971Z,75.89
2016-05-22T01:05:35.971Z,75.89
2016-05-22T01:05:45.971Z,75.6
2016-05-22T01:05:55.971Z,75.98
2016-05-22T01:06:05.987Z,75.89
2016-05-22T01:06:15.990Z,76.04
2016-05-22T01:06:26.006Z,75.89
2016-05-22T01:06:35.849Z,75.89
2016-05-22T01:06:46.006Z,75.98
2016-05-22T01:06:56.021Z,76.07
2016-05-22T01:07:06.021Z,75.98
2016-05-22T01:07:16.024Z,75.98
2016-05-22T01:07:26.024Z,75.75
2016-05-22T01:07:36.040Z,75.79
2016-05-22T01:07:46.040Z,75.6
2016-05-22T01:07:56.040Z,75.89
2016-05-22T01:08:06.040Z,75.89
2016-05-22T01:08:16.058Z,75.85
2016-05-22T01:08:26.058Z,75.6
2016-05-22T01:08:36.058Z,75.79
2016-05-22T01:08:46.074Z,75.75
2016-05-22T01:08:56.074Z,75.7
2016-05-22T01:09:06.074Z,75.7
2016-05-22T01:09:15.935Z,76.07
2016-05-22T01:09:26.092Z,76.17
2016-05-22T01:09:36.092Z,75.95
2016-05-22T01:09:46.092Z,75.56
2016-05-22T01:09:56.107Z,75.75
2016-05-22T01:10:06.107Z,75.31
2016-05-22T01:10:16.126Z,75.95
2016-05-22T01:10:26.126Z,75.75
2016-05-22T01:10:36.142Z,75.65
2016-05-22T01:10:46.126Z,75.6
2016-05-22T01:10:56.173Z,75.56
2016-05-22T01:11:06.142Z,75.31
2016-05-22T01:11:16.145Z,75.46
2016-05-22T01:11:26.160Z,75.46
2016-05-22T01:11:36.004Z,75.56
2016-05-22T01:11:46.160Z,75.46
2016-05-22T01:11:56.176Z,75.46
2016-05-22T01:12:06.176Z,75.65
2016-05-22T01:12:16.318Z,75.65
2016-05-22T01:12:26.756Z,75.37
2016-05-22T01:12:36.318Z,75.5
2016-05-22T01:12:46.193Z,75.27
2016-05-22T01:12:56.631Z,75.79
2016-05-22T01:13:06.506Z,75.79
2016-05-22T01:13:16.212Z,75.27
2016-05-22T01:13:26.243Z,75.65
2016-05-22T01:13:36.228Z,75.79
2016-05-22T01:13:46.243Z,75.6
2016-05-22T01:13:56.243Z,75.79
2016-05-22T01:14:06.087Z,75.75
2016-05-22T01:14:16.090Z,75.75
2016-05-22T01:14:26.262Z,75.75
2016-05-22T01:14:36.278Z,75.85
2016-05-22T01:14:46.262Z,75.85
2016-05-22T01:14:56.262Z,75.65
2016-05-22T01:15:06.278Z,75.89
2016-05-22T01:15:16.123Z,75.46
2016-05-22T01:15:26.311Z,75.46
2016-05-22T01:15:36.295Z,75.46
2016-05-22T01:15:46.155Z,75.4
2016-05-22T01:15:56.295Z,75.18
2016-05-22T01:16:06.295Z,75.37
2016-05-22T01:16:16.174Z,75.37
2016-05-22T01:16:26.315Z,75.75
2016-05-22T01:16:36.315Z,75.56
2016-05-22T01:16:46.330Z,75.37
2016-05-22T01:16:56.330Z,75.27
2016-05-22T01:17:06.330Z,75.65
2016-05-22T01:17:16.364Z,75.65
2016-05-22T01:17:26.348Z,75.65
2016-05-22T01:17:36.348Z,75.65
2016-05-22T01:17:46.364Z,75.65
2016-05-22T01:17:56.364Z,75.56
2016-05-22T01:18:06.364Z,75.37
2016-05-22T01:18:16.381Z,75.18
2016-05-22T01:18:26.381Z,75.18
2016-05-22T01:18:36.381Z,75.18
2016-05-22T01:18:46.397Z,74.89
2016-05-22T01:18:56.397Z,74.89
2016-05-22T01:19:06.397Z,74.98
2016-05-22T01:19:16.416Z,74.89
2016-05-22T01:19:26.416Z,75.08
2016-05-22T01:19:36.416Z,75.18
2016-05-22T01:19:46.431Z,74.89
2016-05-22T01:19:56.447Z,74.89
2016-05-22T01:20:06.447Z,74.89
2016-05-22T01:20:16.450Z,74.89
2016-05-22T01:20:26.450Z,75.18
2016-05-22T01:20:36.450Z,75.18
2016-05-22T01:20:46.309Z,74.79
2016-05-22T01:20:56.465Z,74.41
2016-05-22T01:21:06.465Z,74.69
2016-05-22T01:21:16.468Z,74.89
2016-05-22T01:21:26.484Z,75.08
2016-05-22T01:21:36.484Z,74.69
2016-05-22T01:21:46.484Z,74.79
2016-05-22T01:21:56.500Z,74.41
2016-05-22T01:22:06.500Z,74.79
2016-05-22T01:22:16.503Z,74.89
2016-05-22T01:22:26.518Z,74.79
2016-05-22T01:22:36.518Z,74.51
2016-05-22T01:22:46.518Z,74.89
2016-05-22T01:22:56.534Z,74.6
2016-05-22T01:23:06.534Z,74.22
2016-05-22T01:23:16.536Z,74.51
2016-05-22T01:23:26.552Z,74.31
2016-05-22T01:23:36.552Z,74.41
2016-05-22T01:23:46.552Z,74.41
2016-05-22T01:23:56.567Z,74.41
2016-05-22T01:24:06.567Z,74.41
2016-05-22T01:24:16.570Z,74.41
2016-05-22T01:24:26.586Z,74.69
2016-05-22T01:24:36.586Z,74.51
2016-05-22T01:24:46.586Z,74.31
2016-05-22T01:24:56.601Z,74.6
2016-05-22T01:25:06.445Z,73.93
2016-05-22T01:25:16.603Z,73.99
2016-05-22T01:25:26.603Z,73.8
2016-05-22T01:25:36.619Z,73.51
2016-05-22T01:25:46.619Z,73.99
2016-05-22T01:25:56.619Z,73.9
2016-05-22T01:26:06.635Z,73.61
2016-05-22T01:26:16.638Z,73.32
2016-05-22T01:26:26.638Z,73.51
2016-05-22T01:26:36.653Z,73.61
2016-05-22T01:26:46.653Z,73.51
2016-05-22T01:26:56.669Z,73.61
2016-05-22T01:27:06.653Z,73.99
2016-05-22T01:27:16.688Z,73.7
2016-05-22T01:27:26.672Z,73.7
2016-05-22T01:27:36.516Z,73.8
2016-05-22T01:27:46.688Z,73.61
2016-05-22T01:27:56.688Z,73.8
2016-05-22T01:28:06.938Z,73.8
2016-05-22T01:28:16.705Z,73.7
2016-05-22T01:28:26.705Z,73.41
2016-05-22T01:28:36.705Z,73.99
2016-05-22T01:28:46.705Z,73.9
2016-05-22T01:28:56.721Z,73.99
2016-05-22T01:29:06.721Z,73.61
2016-05-22T01:29:16.583Z,73.22
2016-05-22T01:29:26.739Z,73.41
2016-05-22T01:29:36.739Z,73.22
2016-05-22T01:29:46.739Z,73.13
2016-05-22T01:29:56.755Z,73.22
2016-05-22T01:30:06.755Z,72.94
2016-05-22T01:30:16.616Z,73.13
2016-05-22T01:30:26.773Z,72.64
2016-05-22T01:30:36.773Z,73.03
2016-05-22T01:30:46.648Z,72.94
2016-05-22T01:30:56.788Z,73.13
2016-05-22T01:31:06.788Z,73.41
2016-05-22T01:31:16.791Z,73.22
2016-05-22T01:31:26.807Z,73.13
2016-05-22T01:31:36.807Z,73.03
2016-05-22T01:31:46.823Z,72.94
2016-05-22T01:31:56.823Z,72.84
2016-05-22T01:32:06.823Z,73.03
2016-05-22T01:32:16.669Z,72.74
2016-05-22T01:32:26.841Z,73.03
2016-05-22T01:32:36.826Z,72.84
2016-05-22T01:32:46.841Z,72.94
2016-05-22T01:32:56.872Z,73.13
2016-05-22T01:33:06.701Z,72.55
2016-05-22T01:33:16.860Z,73.41
2016-05-22T01:33:26.860Z,73.22
2016-05-22T01:33:36.875Z,73.32
2016-05-22T01:33:46.875Z,73.32
2016-05-22T01:33:56.891Z,72.74
2016-05-22T01:34:06.891Z,72.84
2016-05-22T01:34:16.893Z,72.84
2016-05-22T01:34:26.893Z,72.84
2016-05-22T01:34:36.752Z,72.84
2016-05-22T01:34:46.909Z,72.84
2016-05-22T01:34:56.924Z,72.84
2016-05-22T01:35:06.924Z,72.84
2016-05-22T01:35:16.927Z,72.64
2016-05-22T01:35:26.927Z,72.64
2016-05-22T01:35:36.927Z,72.94
2016-05-22T01:35:46.943Z,72.94
2016-05-22T01:35:56.959Z,73.03
2016-05-22T01:36:06.959Z,73.13
2016-05-22T01:36:16.962Z,72.94
2016-05-22T01:36:26.962Z,73.03
2016-05-22T01:36:36.962Z,72.94
2016-05-22T01:36:46.977Z,72.84
2016-05-22T01:36:56.977Z,72.94
2016-05-22T01:37:06.977Z,72.84
2016-05-22T01:37:16.996Z,72.36
2016-05-22T01:37:26.996Z,72.17
2016-05-22T01:37:36.996Z,72.27
2016-05-22T01:37:46.855Z,72.17
2016-05-22T01:37:57.011Z,72.07
2016-05-22T01:38:07.011Z,72.17
2016-05-22T01:38:17.029Z,72.55
2016-05-22T01:38:27.029Z,72.45
2016-05-22T01:38:37.029Z,72.55
2016-05-22T01:38:46.873Z,72.45
2016-05-22T01:38:57.045Z,72.55
2016-05-22T01:39:07.045Z,72.07
2016-05-22T01:39:17.048Z,72.27
2016-05-22T01:39:27.063Z,72.27
2016-05-22T01:39:37.063Z,72.27
2016-05-22T01:39:47.063Z,71.98
2016-05-22T01:39:57.079Z,72.07
2016-05-22T01:40:07.079Z,71.98
2016-05-22T01:40:17.081Z,72.07
2016-05-22T01:40:26.940Z,72.17
2016-05-22T01:40:37.112Z,72.07
2016-05-22T01:40:47.097Z,72.07
2016-05-22T01:40:57.112Z,72.27
2016-05-22T01:41:07.112Z,72.27
2016-05-22T01:41:17.132Z,72.17
2016-05-22T01:41:27.116Z,72.45
2016-05-22T01:41:37.132Z,72.36
2016-05-22T01:41:47.132Z,72.36
2016-05-22T01:41:57.147Z,72.27
2016-05-22T01:42:07.147Z,71.98
2016-05-22T01:42:17.431Z,71.59
2016-05-22T01:42:27.415Z,71.88
2016-05-22T01:42:37.165Z,71.78
2016-05-22T01:42:47.337Z,71.98
2016-05-22T01:42:57.165Z,71.59
2016-05-22T01:43:07.649Z,71.5
2016-05-22T01:43:17.184Z,71.69
2016-05-22T01:43:27.184Z,71.88
2016-05-22T01:43:37.043Z,71.69
2016-05-22T01:43:47.199Z,71.78
2016-05-22T01:43:57.199Z,71.88
2016-05-22T01:44:07.215Z,71.4
2016-05-22T01:44:17.061Z,71.98
2016-05-22T01:44:27.217Z,71.5
2016-05-22T01:44:37.233Z,71.02
2016-05-22T01:44:47.233Z,71.4
2016-05-22T01:44:57.076Z,71.21
2016-05-22T01:45:07.233Z,71.59
2016-05-22T01:45:17.236Z,71.5
2016-05-22T01:45:27.251Z,71.69
2016-05-22T01:45:37.251Z,71.59
2016-05-22T01:45:47.111Z,70.92
2016-05-22T01:45:57.267Z,71.02
2016-05-22T01:46:07.267Z,71.02
2016-05-22T01:46:17.270Z,71.08
2016-05-22T01:46:27.285Z,70.79
2016-05-22T01:46:37.285Z,70.73
2016-05-22T01:46:47.285Z,70.73
2016-05-22T01:46:57.145Z,70.83
2016-05-22T01:47:07.301Z,70.83
2016-05-22T01:47:17.304Z,71.02
2016-05-22T01:47:27.163Z,70.79
2016-05-22T01:47:37.320Z,70.83
2016-05-22T01:47:47.320Z,70.6
2016-05-22T01:47:57.335Z,70.64
2016-05-22T01:48:07.335Z,70.5
2016-05-22T01:48:17.337Z,70.7
2016-05-22T01:48:27.353Z,70.6
2016-05-22T01:48:37.353Z,70.79
2016-05-22T01:48:47.197Z,70.6
2016-05-22T01:48:57.369Z,70.7
2016-05-22T01:49:07.369Z,70.7
2016-05-22T01:49:17.372Z,70.79
2016-05-22T01:49:27.387Z,70.6
2016-05-22T01:49:37.387Z,70.89
2016-05-22T01:49:47.231Z,70.89
2016-05-22T01:49:57.418Z,70.79
2016-05-22T01:50:07.403Z,70.79
2016-05-22T01:50:17.406Z,70.6
2016-05-22T01:50:27.406Z,70.79
2016-05-22T01:50:37.406Z,70.6
2016-05-22T01:50:47.421Z,70.6
2016-05-22T01:50:57.437Z,70.6
2016-05-22T01:51:07.421Z,70.6
2016-05-22T01:51:17.283Z,70.6
2016-05-22T01:51:27.455Z,70.79
2016-05-22T01:51:37.439Z,70.98
2016-05-22T01:51:47.455Z,70.89
2016-05-22T01:51:57.455Z,70.79
2016-05-22T01:52:07.455Z,70.7
2016-05-22T01:52:17.473Z,70.5
2016-05-22T01:52:27.473Z,70.31
2016-05-22T01:52:37.473Z,70.31
2016-05-22T01:52:47.489Z,70.21
2016-05-22T01:52:57.489Z,70.31
2016-05-22T01:53:07.333Z,70.31
2016-05-22T01:53:17.507Z,70.31
2016-05-22T01:53:27.507Z,70.12
2016-05-22T01:53:37.507Z,70.12
2016-05-22T01:53:47.507Z,70.31
2016-05-22T01:53:57.522Z,70.41
2016-05-22T01:54:07.522Z,70.31
2016-05-22T01:54:17.526Z,70.12
2016-05-22T01:54:27.557Z,70.12
2016-05-22T01:54:37.542Z,70.12
2016-05-22T01:54:47.542Z,70.31
2016-05-22T01:54:57.557Z,70.12
2016-05-22T01:55:07.557Z,70.12
2016-05-22T01:55:17.559Z,70.12
2016-05-22T01:55:27.419Z,70.41
2016-05-22T01:55:37.575Z,70.21
2016-05-22T01:55:47.575Z,70.41
2016-05-22T01:55:57.591Z,70.41
2016-05-22T01:56:07.591Z,70.31
2016-05-22T01:56:17.594Z,70.21
2016-05-22T01:56:27.609Z,70.31
2016-05-22T01:56:37.609Z,70.31
2016-05-22T01:56:47.609Z,70.41
2016-05-22T01:56:57.625Z,70.41
2016-05-22T01:57:07.625Z,70.31
2016-05-22T01:57:17.674Z,70.31
2016-05-22T01:57:27.502Z,70.31
2016-05-22T01:57:38.143Z,69.93
2016-05-22T01:57:47.830Z,70.03
2016-05-22T01:57:57.752Z,70.03
2016-05-22T01:58:07.752Z,69.93
2016-05-22T01:58:17.677Z,70.12
2016-05-22T01:58:27.661Z,70.31
2016-05-22T01:58:37.661Z,69.83
2016-05-22T01:58:47.677Z,70.03
2016-05-22T01:58:57.677Z,69.83
2016-05-22T01:59:07.692Z,69.74
2016-05-22T01:59:17.695Z,70.03
2016-05-22T01:59:27.555Z,69.83
2016-05-22T01:59:37.727Z,69.54
2016-05-22T01:59:47.711Z,69.93
2016-05-22T01:59:57.711Z,69.45
2016-05-22T02:00:07.727Z,69.45
2016-05-22T02:00:17.730Z,70.03
2016-05-22T02:00:27.730Z,69.93
2016-05-22T02:00:37.730Z,69.45
2016-05-22T02:00:47.745Z,69.64
2016-05-22T02:00:57.745Z,69.74
2016-05-22T02:01:07.745Z,69.45
2016-05-22T02:01:17.607Z,69.64
2016-05-22T02:01:27.763Z,69.64
2016-05-22T02:01:37.763Z,69.93
2016-05-22T02:01:47.779Z,69.64
2016-05-22T02:01:57.779Z,69.64
2016-05-22T02:02:07.779Z,69.93
2016-05-22T02:02:17.782Z,69.64
2016-05-22T02:02:27.797Z,69.74
2016-05-22T02:02:37.797Z,69.64
2016-05-22T02:02:47.657Z,69.74
2016-05-22T02:02:57.813Z,69.64
2016-05-22T02:03:07.813Z,69.35
2016-05-22T02:03:17.815Z,69.64
2016-05-22T02:03:27.830Z,69.45
2016-05-22T02:03:37.830Z,69.64
2016-05-22T02:03:47.846Z,69.74
2016-05-22T02:03:57.830Z,69.74
2016-05-22T02:04:07.846Z,70.21
2016-05-22T02:04:17.850Z,69.83
2016-05-22T02:04:27.866Z,69.74
2016-05-22T02:04:37.866Z,69.74
2016-05-22T02:04:47.866Z,69.83
2016-05-22T02:04:57.866Z,69.54
2016-05-22T02:05:07.881Z,69.83
2016-05-22T02:05:17.883Z,70.21
2016-05-22T02:05:27.883Z,69.83
2016-05-22T02:05:37.899Z,69.83
2016-05-22T02:05:47.899Z,69.83
2016-05-22T02:05:57.899Z,69.93
2016-05-22T02:06:07.915Z,70.41
2016-05-22T02:06:17.917Z,70.5
2016-05-22T02:06:27.917Z,70.21
2016-05-22T02:06:37.776Z,70.03
2016-05-22T02:06:47.932Z,70.31
2016-05-22T02:06:57.932Z,70.03
2016-05-22T02:07:07.948Z,69.83
2016-05-22T02:07:17.952Z,69.74
2016-05-22T02:07:27.952Z,70.41
2016-05-22T02:07:37.952Z,70.41
2016-05-22T02:07:47.967Z,69.83
2016-05-22T02:07:57.967Z,70.21
2016-05-22T02:08:07.967Z,70.31
2016-05-22T02:08:17.829Z,70.31
2016-05-22T02:08:27.829Z,70.41
2016-05-22T02:08:37.985Z,70.41
2016-05-22T02:08:47.985Z,70.5
2016-05-22T02:08:58.001Z,70.28
2016-05-22T02:09:08.001Z,70.03
2016-05-22T02:09:18.004Z,70.12
2016-05-22T02:09:28.019Z,70.12
2016-05-22T02:09:38.019Z,70.12